sensor_id;sensor_type;location;lat;lon;timestamp;temperature;humidity
24224;DHT22;12359;49.716;9.212;2024-02-16T00:00:06;10.80;1.00
24224;DHT22;12359;49.716;9.212;2024-02-16T00:02:32;10.80;1.00
24224;DHT22;12359;49.716;9.212;2024-02-16T00:04:58;10.80;1.00
24224;DHT22;12359;49.716;9.212;2024-02-16T00:07:24;10.70;1.00
24224;DHT22;12359;49.716;9.212;2024-02-16T00:09:50;10.70;1.00
24224;DHT22;12359;49.716;9.212;2024-02-16T00:12:15;10.70;1.00
24224;DHT22;12359;49.716;9.212;2024-02-16T00:14:42;10.60;1.00
24224;DHT22;12359;49.716;9.212;2024-02-16T00:17:08;10.70;1.00
24224;DHT22;12359;49.716;9.212;2024-02-16T00:19:35;10.70;1.00
24224;DHT22;12359;49.716;9.212;2024-02-16T00:22:01;10.60;1.00
24224;DHT22;12359;49.716;9.212;2024-02-16T00:24:27;10.70;1.00
24224;DHT22;12359;49.716;9.212;2024-02-16T00:26:53;10.70;1.00
24224;DHT22;12359;49.716;9.212;2024-02-16T00:29:19;10.70;1.00
24224;DHT22;12359;49.716;9.212;2024-02-16T00:31:44;10.60;1.00
24224;DHT22;12359;49.716;9.212;2024-02-16T00:34:10;10.50;1.00
24224;DHT22;12359;49.716;9.212;2024-02-16T00:36:36;10.50;1.00
24224;DHT22;12359;49.716;9.212;2024-02-16T00:39:02;10.50;1.00
24224;DHT22;12359;49.716;9.212;2024-02-16T00:41:29;10.50;1.00
24224;DHT22;12359;49.716;9.212;2024-02-16T00:43:55;10.60;1.00
24224;DHT22;12359;49.716;9.212;2024-02-16T00:46:22;10.60;1.00
24224;DHT22;12359;49.716;9.212;2024-02-16T00:48:49;10.50;1.00
24224;DHT22;12359;49.716;9.212;2024-02-16T00:51:15;10.50;1.00
24224;DHT22;12359;49.716;9.212;2024-02-16T00:53:41;10.50;1.00
24224;DHT22;12359;49.716;9.212;2024-02-16T00:56:06;10.50;2.60
24224;DHT22;12359;49.716;9.212;2024-02-16T00:58:32;10.40;4.00
24224;DHT22;12359;49.716;9.212;2024-02-16T01:00:58;10.40;1.90
24224;DHT22;12359;49.716;9.212;2024-02-16T01:03:24;10.40;2.30
24224;DHT22;12359;49.716;9.212;2024-02-16T01:05:52;10.40;4.20
24224;DHT22;12359;49.716;9.212;2024-02-16T01:08:18;10.40;3.50
24224;DHT22;12359;49.716;9.212;2024-02-16T01:10:44;10.40;1.70
24224;DHT22;12359;49.716;9.212;2024-02-16T01:13:09;10.40;1.00
24224;DHT22;12359;49.716;9.212;2024-02-16T01:15:36;10.40;1.00
24224;DHT22;12359;49.716;9.212;2024-02-16T01:18:03;10.40;1.00
24224;DHT22;12359;49.716;9.212;2024-02-16T01:20:29;10.40;1.00
24224;DHT22;12359;49.716;9.212;2024-02-16T01:22:57;10.40;1.00
24224;DHT22;12359;49.716;9.212;2024-02-16T01:25:22;10.40;1.00
24224;DHT22;12359;49.716;9.212;2024-02-16T01:27:48;10.40;1.00
24224;DHT22;12359;49.716;9.212;2024-02-16T01:30:14;10.40;2.30
24224;DHT22;12359;49.716;9.212;2024-02-16T01:32:41;10.30;2.80
24224;DHT22;12359;49.716;9.212;2024-02-16T01:35:07;10.40;4.80
24224;DHT22;12359;49.716;9.212;2024-02-16T01:37:32;10.40;3.00
24224;DHT22;12359;49.716;9.212;2024-02-16T01:39:58;10.40;5.90
24224;DHT22;12359;49.716;9.212;2024-02-16T01:42:24;10.40;3.90
24224;DHT22;12359;49.716;9.212;2024-02-16T01:44:50;10.40;4.60
24224;DHT22;12359;49.716;9.212;2024-02-16T01:47:18;10.40;4.60
24224;DHT22;12359;49.716;9.212;2024-02-16T01:49:45;10.40;1.00
24224;DHT22;12359;49.716;9.212;2024-02-16T01:52:11;10.50;1.50
24224;DHT22;12359;49.716;9.212;2024-02-16T01:54:38;10.40;1.00
24224;DHT22;12359;49.716;9.212;2024-02-16T01:57:05;10.40;1.00
24224;DHT22;12359;49.716;9.212;2024-02-16T01:59:32;10.40;1.00
24224;DHT22;12359;49.716;9.212;2024-02-16T02:01:59;10.40;1.00
24224;DHT22;12359;49.716;9.212;2024-02-16T02:04:26;10.40;1.00
24224;DHT22;12359;49.716;9.212;2024-02-16T02:06:52;10.40;1.00
24224;DHT22;12359;49.716;9.212;2024-02-16T02:09:18;10.40;1.00
24224;DHT22;12359;49.716;9.212;2024-02-16T02:11:44;10.40;1.00
24224;DHT22;12359;49.716;9.212;2024-02-16T02:14:10;10.40;1.00
24224;DHT22;12359;49.716;9.212;2024-02-16T02:16:35;10.40;1.00
24224;DHT22;12359;49.716;9.212;2024-02-16T02:19:02;10.40;3.50
24224;DHT22;12359;49.716;9.212;2024-02-16T02:21:28;10.40;4.30
24224;DHT22;12359;49.716;9.212;2024-02-16T02:23:54;10.40;3.40
24224;DHT22;12359;49.716;9.212;2024-02-16T02:26:20;10.40;1.00
24224;DHT22;12359;49.716;9.212;2024-02-16T02:28:46;10.40;1.00
24224;DHT22;12359;49.716;9.212;2024-02-16T02:31:12;10.40;1.00
24224;DHT22;12359;49.716;9.212;2024-02-16T02:33:38;10.50;1.00
24224;DHT22;12359;49.716;9.212;2024-02-16T02:36:04;10.50;1.00
24224;DHT22;12359;49.716;9.212;2024-02-16T02:38:30;10.40;3.80
24224;DHT22;12359;49.716;9.212;2024-02-16T02:40:56;10.30;7.60
24224;DHT22;12359;49.716;9.212;2024-02-16T02:43:22;10.40;11.00
24224;DHT22;12359;49.716;9.212;2024-02-16T02:45:48;10.30;11.60
24224;DHT22;12359;49.716;9.212;2024-02-16T02:48:14;10.30;12.20
24224;DHT22;12359;49.716;9.212;2024-02-16T02:50:40;10.30;14.20
24224;DHT22;12359;49.716;9.212;2024-02-16T02:53:05;10.20;18.70
24224;DHT22;12359;49.716;9.212;2024-02-16T02:55:31;10.20;14.60
24224;DHT22;12359;49.716;9.212;2024-02-16T02:57:57;10.20;8.50
24224;DHT22;12359;49.716;9.212;2024-02-16T03:00:23;10.20;7.00
24224;DHT22;12359;49.716;9.212;2024-02-16T03:02:49;10.20;6.40
24224;DHT22;12359;49.716;9.212;2024-02-16T03:05:16;10.10;6.00
24224;DHT22;12359;49.716;9.212;2024-02-16T03:07:43;10.10;4.80
24224;DHT22;12359;49.716;9.212;2024-02-16T03:10:09;10.10;6.10
24224;DHT22;12359;49.716;9.212;2024-02-16T03:12:35;10.10;10.70
24224;DHT22;12359;49.716;9.212;2024-02-16T03:15:01;10.10;19.10
24224;DHT22;12359;49.716;9.212;2024-02-16T03:17:26;10.10;18.40
24224;DHT22;12359;49.716;9.212;2024-02-16T03:19:52;10.10;16.70
24224;DHT22;12359;49.716;9.212;2024-02-16T03:22:18;10.10;15.50
24224;DHT22;12359;49.716;9.212;2024-02-16T03:24:43;10.10;20.30
24224;DHT22;12359;49.716;9.212;2024-02-16T03:27:10;10.10;25.40
24224;DHT22;12359;49.716;9.212;2024-02-16T03:29:36;10.00;24.40
24224;DHT22;12359;49.716;9.212;2024-02-16T03:32:02;10.00;26.40
24224;DHT22;12359;49.716;9.212;2024-02-16T03:34:28;10.10;18.40
24224;DHT22;12359;49.716;9.212;2024-02-16T03:36:53;10.20;10.10
24224;DHT22;12359;49.716;9.212;2024-02-16T03:39:19;10.20;4.30
24224;DHT22;12359;49.716;9.212;2024-02-16T03:41:45;10.30;1.00
24224;DHT22;12359;49.716;9.212;2024-02-16T03:44:15;10.30;1.00
24224;DHT22;12359;49.716;9.212;2024-02-16T03:46:42;10.30;1.00
24224;DHT22;12359;49.716;9.212;2024-02-16T03:49:09;10.30;1.00
24224;DHT22;12359;49.716;9.212;2024-02-16T03:51:35;10.30;1.00
24224;DHT22;12359;49.716;9.212;2024-02-16T03:54:01;10.30;1.00
24224;DHT22;12359;49.716;9.212;2024-02-16T03:56:28;10.20;1.00
24224;DHT22;12359;49.716;9.212;2024-02-16T03:58:53;10.20;7.20
24224;DHT22;12359;49.716;9.212;2024-02-16T04:01:19;10.10;15.30
24224;DHT22;12359;49.716;9.212;2024-02-16T04:03:45;10.10;15.50
24224;DHT22;12359;49.716;9.212;2024-02-16T04:06:10;10.00;15.60
24224;DHT22;12359;49.716;9.212;2024-02-16T04:08:36;10.10;12.80
24224;DHT22;12359;49.716;9.212;2024-02-16T04:11:02;10.10;15.50
24224;DHT22;12359;49.716;9.212;2024-02-16T04:13:28;10.10;13.80
24224;DHT22;12359;49.716;9.212;2024-02-16T04:15:54;10.10;10.50
24224;DHT22;12359;49.716;9.212;2024-02-16T04:18:19;10.10;10.80
24224;DHT22;12359;49.716;9.212;2024-02-16T04:20:45;10.10;5.20
24224;DHT22;12359;49.716;9.212;2024-02-16T04:23:10;10.10;10.70
24224;DHT22;12359;49.716;9.212;2024-02-16T04:25:36;10.00;19.40
24224;DHT22;12359;49.716;9.212;2024-02-16T04:28:02;10.00;24.80
24224;DHT22;12359;49.716;9.212;2024-02-16T04:30:27;10.00;25.80
24224;DHT22;12359;49.716;9.212;2024-02-16T04:32:53;9.90;29.70
24224;DHT22;12359;49.716;9.212;2024-02-16T04:35:19;9.90;34.50
24224;DHT22;12359;49.716;9.212;2024-02-16T04:37:44;9.80;41.30
24224;DHT22;12359;49.716;9.212;2024-02-16T04:40:10;9.70;47.70
24224;DHT22;12359;49.716;9.212;2024-02-16T04:42:38;9.70;51.10
24224;DHT22;12359;49.716;9.212;2024-02-16T04:45:06;9.60;54.80
24224;DHT22;12359;49.716;9.212;2024-02-16T04:47:31;9.60;57.80
24224;DHT22;12359;49.716;9.212;2024-02-16T04:49:57;9.60;56.20
24224;DHT22;12359;49.716;9.212;2024-02-16T04:52:23;9.60;58.10
24224;DHT22;12359;49.716;9.212;2024-02-16T04:54:48;9.60;60.40
24224;DHT22;12359;49.716;9.212;2024-02-16T04:57:14;9.60;60.90
24224;DHT22;12359;49.716;9.212;2024-02-16T04:59:40;9.60;60.80
24224;DHT22;12359;49.716;9.212;2024-02-16T05:02:05;9.60;56.70
24224;DHT22;12359;49.716;9.212;2024-02-16T05:04:32;9.60;53.30
24224;DHT22;12359;49.716;9.212;2024-02-16T05:06:58;9.60;50.60
24224;DHT22;12359;49.716;9.212;2024-02-16T05:09:23;9.60;46.40
24224;DHT22;12359;49.716;9.212;2024-02-16T05:11:54;9.70;44.70
24224;DHT22;12359;49.716;9.212;2024-02-16T05:14:20;9.70;43.60
24224;DHT22;12359;49.716;9.212;2024-02-16T05:16:46;9.70;45.70
24224;DHT22;12359;49.716;9.212;2024-02-16T05:19:12;9.70;50.90
24224;DHT22;12359;49.716;9.212;2024-02-16T05:21:38;9.70;53.50
24224;DHT22;12359;49.716;9.212;2024-02-16T05:24:04;9.60;55.50
24224;DHT22;12359;49.716;9.212;2024-02-16T05:26:30;9.60;57.90
24224;DHT22;12359;49.716;9.212;2024-02-16T05:28:55;9.60;58.60
24224;DHT22;12359;49.716;9.212;2024-02-16T05:31:21;9.50;59.80
24224;DHT22;12359;49.716;9.212;2024-02-16T05:33:50;9.50;62.30
24224;DHT22;12359;49.716;9.212;2024-02-16T05:36:20;9.50;64.70
24224;DHT22;12359;49.716;9.212;2024-02-16T05:38:46;9.50;62.50
24224;DHT22;12359;49.716;9.212;2024-02-16T05:41:12;9.40;61.40
24224;DHT22;12359;49.716;9.212;2024-02-16T05:43:38;9.40;62.10
24224;DHT22;12359;49.716;9.212;2024-02-16T05:46:04;9.40;62.00
24224;DHT22;12359;49.716;9.212;2024-02-16T05:48:33;9.40;60.60
24224;DHT22;12359;49.716;9.212;2024-02-16T05:51:03;9.40;58.60
24224;DHT22;12359;49.716;9.212;2024-02-16T05:53:31;9.50;58.00
24224;DHT22;12359;49.716;9.212;2024-02-16T05:55:56;9.40;57.00
24224;DHT22;12359;49.716;9.212;2024-02-16T05:58:23;9.40;58.00
24224;DHT22;12359;49.716;9.212;2024-02-16T06:00:49;9.40;58.10
24224;DHT22;12359;49.716;9.212;2024-02-16T06:03:14;9.40;51.90
24224;DHT22;12359;49.716;9.212;2024-02-16T06:05:40;9.40;54.40
24224;DHT22;12359;49.716;9.212;2024-02-16T06:08:10;9.40;51.30
24224;DHT22;12359;49.716;9.212;2024-02-16T06:10:36;9.40;49.70
24224;DHT22;12359;49.716;9.212;2024-02-16T06:13:01;9.30;53.10
24224;DHT22;12359;49.716;9.212;2024-02-16T06:15:27;9.30;56.40
24224;DHT22;12359;49.716;9.212;2024-02-16T06:17:53;9.40;55.70
24224;DHT22;12359;49.716;9.212;2024-02-16T06:20:19;9.40;55.90
24224;DHT22;12359;49.716;9.212;2024-02-16T06:22:45;9.30;53.70
24224;DHT22;12359;49.716;9.212;2024-02-16T06:25:10;9.30;52.80
24224;DHT22;12359;49.716;9.212;2024-02-16T06:27:36;9.30;53.40
24224;DHT22;12359;49.716;9.212;2024-02-16T06:30:05;9.30;54.60
24224;DHT22;12359;49.716;9.212;2024-02-16T06:32:36;9.30;52.70
24224;DHT22;12359;49.716;9.212;2024-02-16T06:35:01;9.30;47.40
24224;DHT22;12359;49.716;9.212;2024-02-16T06:37:27;9.40;45.10
24224;DHT22;12359;49.716;9.212;2024-02-16T06:39:53;9.40;45.20
24224;DHT22;12359;49.716;9.212;2024-02-16T06:42:18;9.30;43.30
24224;DHT22;12359;49.716;9.212;2024-02-16T06:44:44;9.30;44.70
24224;DHT22;12359;49.716;9.212;2024-02-16T06:47:10;9.30;45.60
24224;DHT22;12359;49.716;9.212;2024-02-16T06:49:36;9.30;45.90
24224;DHT22;12359;49.716;9.212;2024-02-16T06:52:02;9.30;45.20
24224;DHT22;12359;49.716;9.212;2024-02-16T06:54:28;9.30;46.40
24224;DHT22;12359;49.716;9.212;2024-02-16T06:56:54;9.30;45.80
24224;DHT22;12359;49.716;9.212;2024-02-16T06:59:19;9.30;47.40
24224;DHT22;12359;49.716;9.212;2024-02-16T07:01:45;9.30;47.00
24224;DHT22;12359;49.716;9.212;2024-02-16T07:04:11;9.40;49.80
24224;DHT22;12359;49.716;9.212;2024-02-16T07:06:36;9.40;45.50
24224;DHT22;12359;49.716;9.212;2024-02-16T07:09:02;9.50;41.00
24224;DHT22;12359;49.716;9.212;2024-02-16T07:11:28;9.50;35.50
24224;DHT22;12359;49.716;9.212;2024-02-16T07:13:54;9.50;37.40
24224;DHT22;12359;49.716;9.212;2024-02-16T07:16:20;9.60;31.50
24224;DHT22;12359;49.716;9.212;2024-02-16T07:18:46;9.70;26.90
24224;DHT22;12359;49.716;9.212;2024-02-16T07:21:11;9.90;25.40
24224;DHT22;12359;49.716;9.212;2024-02-16T07:23:37;10.10;16.10
24224;DHT22;12359;49.716;9.212;2024-02-16T07:26:03;10.20;8.70
24224;DHT22;12359;49.716;9.212;2024-02-16T07:28:29;10.30;1.00
24224;DHT22;12359;49.716;9.212;2024-02-16T07:30:55;10.40;1.00
24224;DHT22;12359;49.716;9.212;2024-02-16T07:33:21;10.50;1.00
24224;DHT22;12359;49.716;9.212;2024-02-16T07:35:47;10.50;1.00
24224;DHT22;12359;49.716;9.212;2024-02-16T07:38:13;10.50;1.00
24224;DHT22;12359;49.716;9.212;2024-02-16T07:40:38;10.60;1.00
24224;DHT22;12359;49.716;9.212;2024-02-16T07:43:05;10.60;1.00
24224;DHT22;12359;49.716;9.212;2024-02-16T07:45:31;10.50;1.00
24224;DHT22;12359;49.716;9.212;2024-02-16T07:47:56;10.60;1.00
24224;DHT22;12359;49.716;9.212;2024-02-16T07:50:23;10.60;1.00
24224;DHT22;12359;49.716;9.212;2024-02-16T07:52:50;10.60;1.00
24224;DHT22;12359;49.716;9.212;2024-02-16T07:55:16;10.60;1.00
24224;DHT22;12359;49.716;9.212;2024-02-16T07:57:46;10.70;1.00
24224;DHT22;12359;49.716;9.212;2024-02-16T08:00:12;10.70;1.00
24224;DHT22;12359;49.716;9.212;2024-02-16T08:02:38;10.60;1.00
24224;DHT22;12359;49.716;9.212;2024-02-16T08:05:12;10.60;1.00
24224;DHT22;12359;49.716;9.212;2024-02-16T08:10:12;10.60;1.00
24224;DHT22;12359;49.716;9.212;2024-02-16T08:12:39;10.60;1.00
24224;DHT22;12359;49.716;9.212;2024-02-16T08:15:05;10.70;1.00
24224;DHT22;12359;49.716;9.212;2024-02-16T08:17:34;10.70;1.00
24224;DHT22;12359;49.716;9.212;2024-02-16T08:20:00;10.70;1.00
24224;DHT22;12359;49.716;9.212;2024-02-16T08:22:26;10.80;1.00
24224;DHT22;12359;49.716;9.212;2024-02-16T08:24:51;10.80;1.00
24224;DHT22;12359;49.716;9.212;2024-02-16T08:27:18;10.80;1.00
24224;DHT22;12359;49.716;9.212;2024-02-16T08:29:43;10.80;1.00
24224;DHT22;12359;49.716;9.212;2024-02-16T08:32:09;10.90;1.00
24224;DHT22;12359;49.716;9.212;2024-02-16T08:34:36;11.10;1.00
24224;DHT22;12359;49.716;9.212;2024-02-16T08:37:05;11.10;1.00
24224;DHT22;12359;49.716;9.212;2024-02-16T08:39:32;11.40;1.00
24224;DHT22;12359;49.716;9.212;2024-02-16T08:41:59;11.60;99.90
24224;DHT22;12359;49.716;9.212;2024-02-16T08:44:25;11.70;99.90
24224;DHT22;12359;49.716;9.212;2024-02-16T08:46:52;11.70;99.90
24224;DHT22;12359;49.716;9.212;2024-02-16T08:49:18;11.80;99.90
24224;DHT22;12359;49.716;9.212;2024-02-16T08:51:44;11.80;99.90
24224;DHT22;12359;49.716;9.212;2024-02-16T08:54:10;11.80;99.90
24224;DHT22;12359;49.716;9.212;2024-02-16T08:56:36;11.90;99.90
24224;DHT22;12359;49.716;9.212;2024-02-16T08:59:07;12.50;99.90
24224;DHT22;12359;49.716;9.212;2024-02-16T09:01:33;12.60;37.30
24224;DHT22;12359;49.716;9.212;2024-02-16T09:04:00;13.60;99.90
24224;DHT22;12359;49.716;9.212;2024-02-16T09:06:29;14.20;76.20
24224;DHT22;12359;49.716;9.212;2024-02-16T09:08:55;14.30;1.00
24224;DHT22;12359;49.716;9.212;2024-02-16T09:11:22;15.30;1.00
24224;DHT22;12359;49.716;9.212;2024-02-16T09:13:47;15.00;99.90
24224;DHT22;12359;49.716;9.212;2024-02-16T09:16:13;14.70;67.40
24224;DHT22;12359;49.716;9.212;2024-02-16T09:21:06;13.90;26.50
24224;DHT22;12359;49.716;9.212;2024-02-16T09:23:33;13.80;99.90
24224;DHT22;12359;49.716;9.212;2024-02-16T09:25:59;13.20;99.90
24224;DHT22;12359;49.716;9.212;2024-02-16T09:41:02;12.70;1.00
24224;DHT22;12359;49.716;9.212;2024-02-16T09:43:29;12.80;7.90
24224;DHT22;12359;49.716;9.212;2024-02-16T09:48:28;12.70;99.90
24224;DHT22;12359;49.716;9.212;2024-02-16T09:50:55;12.60;79.70
24224;DHT22;12359;49.716;9.212;2024-02-16T09:53:24;12.50;31.50
24224;DHT22;12359;49.716;9.212;2024-02-16T09:55:51;12.60;34.10
24224;DHT22;12359;49.716;9.212;2024-02-16T09:58:18;12.70;14.40
24224;DHT22;12359;49.716;9.212;2024-02-16T10:01:02;12.70;99.90
24224;DHT22;12359;49.716;9.212;2024-02-16T10:03:30;12.70;99.90
24224;DHT22;12359;49.716;9.212;2024-02-16T10:06:24;12.80;1.00
24224;DHT22;12359;49.716;9.212;2024-02-16T10:08:56;12.90;1.00
24224;DHT22;12359;49.716;9.212;2024-02-16T10:11:26;12.90;1.00
24224;DHT22;12359;49.716;9.212;2024-02-16T10:14:02;13.10;1.00
24224;DHT22;12359;49.716;9.212;2024-02-16T10:16:29;13.20;99.90
24224;DHT22;12359;49.716;9.212;2024-02-16T10:19:05;13.20;99.90
24224;DHT22;12359;49.716;9.212;2024-02-16T10:21:31;13.20;99.90
24224;DHT22;12359;49.716;9.212;2024-02-16T10:24:02;13.30;99.90
24224;DHT22;12359;49.716;9.212;2024-02-16T10:26:30;13.40;99.90
24224;DHT22;12359;49.716;9.212;2024-02-16T10:28:57;13.60;99.90
24224;DHT22;12359;49.716;9.212;2024-02-16T10:31:24;13.70;1.00
24224;DHT22;12359;49.716;9.212;2024-02-16T10:34:01;14.10;99.90
24224;DHT22;12359;49.716;9.212;2024-02-16T10:36:31;14.30;70.20
24224;DHT22;12359;49.716;9.212;2024-02-16T10:38:58;14.30;78.60
24224;DHT22;12359;49.716;9.212;2024-02-16T10:41:28;14.50;99.90
24224;DHT22;12359;49.716;9.212;2024-02-16T10:43:56;14.70;99.90
24224;DHT22;12359;49.716;9.212;2024-02-16T10:46:25;15.00;1.00
24224;DHT22;12359;49.716;9.212;2024-02-16T10:48:50;15.40;95.60
24224;DHT22;12359;49.716;9.212;2024-02-16T10:51:31;15.40;23.80
24224;DHT22;12359;49.716;9.212;2024-02-16T10:53:58;15.70;1.00
24224;DHT22;12359;49.716;9.212;2024-02-16T10:56:36;15.80;1.00
24224;DHT22;12359;49.716;9.212;2024-02-16T10:59:09;16.00;99.90
24224;DHT22;12359;49.716;9.212;2024-02-16T11:04:05;16.40;99.90
24224;DHT22;12359;49.716;9.212;2024-02-16T11:06:45;17.10;99.90
24224;DHT22;12359;49.716;9.212;2024-02-16T11:09:11;18.00;99.90
24224;DHT22;12359;49.716;9.212;2024-02-16T11:11:37;18.10;1.90
24224;DHT22;12359;49.716;9.212;2024-02-16T11:14:03;19.10;1.00
24224;DHT22;12359;49.716;9.212;2024-02-16T11:16:29;19.50;1.00
24224;DHT22;12359;49.716;9.212;2024-02-16T11:18:56;19.40;99.90
24224;DHT22;12359;49.716;9.212;2024-02-16T11:21:22;19.50;99.90
24224;DHT22;12359;49.716;9.212;2024-02-16T11:23:48;19.10;99.90
24224;DHT22;12359;49.716;9.212;2024-02-16T11:26:14;18.60;99.90
24224;DHT22;12359;49.716;9.212;2024-02-16T11:28:42;18.40;99.90
24224;DHT22;12359;49.716;9.212;2024-02-16T11:31:09;18.30;99.90
24224;DHT22;12359;49.716;9.212;2024-02-16T11:33:34;18.20;99.90
24224;DHT22;12359;49.716;9.212;2024-02-16T11:36:04;18.00;99.90
24224;DHT22;12359;49.716;9.212;2024-02-16T11:38:32;17.60;99.90
24224;DHT22;12359;49.716;9.212;2024-02-16T11:43:26;17.40;99.90
24224;DHT22;12359;49.716;9.212;2024-02-16T11:45:53;17.30;99.90
24224;DHT22;12359;49.716;9.212;2024-02-16T11:50:47;17.30;99.90
24224;DHT22;12359;49.716;9.212;2024-02-16T11:53:19;17.40;1.00
24224;DHT22;12359;49.716;9.212;2024-02-16T11:55:47;17.30;1.00
